createdAt,value
2023-01-13T00:01:57.281Z,8.3
2023-01-13T00:04:04.006Z,8.2
2023-01-13T00:06:07.814Z,8.2
2023-01-13T00:08:11.714Z,8.2
2023-01-13T00:10:15.572Z,8.1
2023-01-13T00:12:19.400Z,8
2023-01-13T00:18:33.785Z,8
2023-01-13T00:22:41.555Z,7.9
2023-01-13T00:24:45.431Z,7.9
2023-01-13T00:33:03.669Z,7.7
2023-01-13T00:35:07.560Z,7.7
2023-01-13T00:37:11.374Z,7.7
2023-01-13T00:39:15.250Z,7.6
2023-01-13T00:41:19.064Z,7.6
2023-01-13T00:43:22.959Z,7.5
2023-01-13T00:45:26.771Z,7.4
2023-01-13T00:47:33.433Z,7.3
2023-01-13T00:51:41.886Z,7.3
2023-01-13T00:54:03.883Z,7.2
2023-01-13T00:58:11.589Z,7.2
2023-01-13T01:00:18.253Z,7.2
2023-01-13T01:02:22.073Z,7.1
2023-01-13T01:04:25.910Z,7.2
2023-01-13T01:06:29.799Z,7.3
2023-01-13T01:08:33.647Z,7.3
2023-01-13T01:10:37.480Z,7.3
2023-01-13T01:12:41.291Z,7.2
2023-01-13T01:16:51.811Z,7.2
2023-01-13T01:18:55.664Z,7.2
2023-01-13T01:23:03.352Z,7.3
2023-01-13T01:25:07.177Z,7.3
2023-01-13T01:27:12.489Z,7.3
2023-01-13T01:31:22.961Z,7.4
2023-01-13T01:33:26.841Z,7.4
2023-01-13T01:35:30.664Z,7.5
2023-01-13T01:37:34.508Z,7.5
2023-01-13T01:43:48.795Z,7.5
2023-01-13T01:45:52.650Z,7.6
2023-01-13T01:47:56.530Z,7.5
2023-01-13T01:51:03.685Z,7.5
2023-01-13T01:53:07.530Z,7.4
2023-01-13T01:55:11.373Z,7.4
2023-01-13T01:57:18.064Z,7.4
2023-01-13T01:59:21.906Z,7.4
2023-01-13T02:01:25.830Z,7.4
2023-01-13T02:03:29.583Z,7.4
2023-01-13T02:05:33.395Z,7.3
2023-01-13T02:07:37.281Z,7.3
2023-01-13T02:11:47.719Z,7.3
2023-01-13T02:13:51.561Z,7.3
2023-01-13T02:15:55.399Z,7.3
2023-01-13T02:17:59.222Z,7.3
2023-01-13T02:20:03.061Z,7.3
2023-01-13T02:22:06.928Z,7.3
2023-01-13T02:24:10.768Z,7.3
2023-01-13T02:26:17.373Z,7.3
2023-01-13T02:28:21.243Z,7.3
2023-01-13T02:30:25.073Z,7.3
2023-01-13T02:38:40.370Z,7.2
2023-01-13T02:40:47.037Z,7.2
2023-01-13T02:42:50.853Z,7.2
2023-01-13T02:44:54.694Z,7.1
2023-01-13T02:45:58.054Z,7.1
2023-01-13T02:48:01.848Z,7.2
2023-01-13T02:54:16.120Z,7.2
2023-01-13T02:56:19.982Z,7.1
2023-01-13T02:58:23.751Z,7.1
2023-01-13T03:02:31.420Z,7.2
2023-01-13T03:04:35.225Z,7.2
2023-01-13T03:06:39.048Z,7.2
2023-01-13T03:08:45.699Z,7.2
2023-01-13T03:12:53.371Z,7.2
2023-01-13T03:14:57.197Z,7.2
2023-01-13T03:19:04.857Z,7.1
2023-01-13T03:21:08.694Z,7.2
2023-01-13T03:23:15.337Z,7.2
2023-01-13T03:25:19.158Z,7.2
2023-01-13T03:27:22.988Z,7.1
2023-01-13T03:31:30.682Z,7.2
2023-01-13T03:33:34.505Z,7.2
2023-01-13T03:37:45.011Z,7.2
2023-01-13T03:41:52.677Z,7.2
2023-01-13T03:42:55.985Z,7.3
2023-01-13T03:44:59.830Z,7.3
2023-01-13T03:47:03.663Z,7.3
2023-01-13T03:49:07.526Z,7.3
2023-01-13T03:51:14.149Z,7.3
2023-01-13T03:53:17.972Z,7.3
2023-01-13T03:55:21.808Z,7.3
2023-01-13T03:57:25.666Z,7.3
2023-01-13T03:59:29.475Z,7.3
2023-01-13T04:01:33.404Z,7.3
2023-01-13T04:03:37.213Z,7.3
2023-01-13T04:05:43.800Z,7.3
2023-01-13T04:07:47.667Z,7.3
2023-01-13T04:09:51.505Z,7.3
2023-01-13T04:11:55.320Z,7.3
2023-01-13T04:13:59.170Z,7.3
2023-01-13T04:16:03.081Z,7.3
2023-01-13T04:18:06.869Z,7.2
2023-01-13T04:20:13.499Z,7.3
2023-01-13T04:22:17.335Z,7.3
2023-01-13T04:24:21.183Z,7.3
2023-01-13T04:26:25.036Z,7.4
2023-01-13T04:28:28.855Z,7.5
2023-01-13T04:30:32.694Z,7.5
2023-01-13T04:32:36.531Z,7.5
2023-01-13T04:34:43.182Z,7.7
2023-01-13T04:36:47.065Z,7.6
2023-01-13T04:38:50.953Z,7.7
2023-01-13T04:41:14.729Z,7.7
2023-01-13T04:43:18.569Z,7.7
2023-01-13T04:45:22.398Z,7.8
2023-01-13T04:47:29.052Z,7.8
2023-01-13T04:49:32.886Z,7.8
2023-01-13T04:51:36.706Z,7.8
2023-01-13T04:53:40.540Z,7.8
2023-01-13T04:55:44.435Z,7.7
2023-01-13T04:57:48.198Z,7.7
2023-01-13T05:01:58.715Z,7.7
2023-01-13T05:06:06.323Z,7.8
2023-01-13T05:08:10.162Z,7.8
2023-01-13T05:10:13.969Z,7.7
2023-01-13T05:12:17.791Z,7.7
2023-01-13T05:16:28.339Z,7.7
2023-01-13T05:18:32.129Z,7.6
2023-01-13T05:20:35.928Z,7.6
2023-01-13T05:22:39.806Z,7.6
2023-01-13T05:24:43.594Z,7.6
2023-01-13T05:26:47.432Z,7.6
2023-01-13T05:28:51.247Z,7.7
2023-01-13T05:30:57.892Z,7.8
2023-01-13T05:33:01.707Z,7.7
2023-01-13T05:35:05.551Z,7.6
2023-01-13T05:36:08.860Z,7.6
2023-01-13T05:38:12.701Z,7.6
2023-01-13T05:40:16.504Z,7.6
2023-01-13T05:42:20.324Z,7.6
2023-01-13T05:44:26.976Z,7.7
2023-01-13T05:46:30.844Z,7.7
2023-01-13T05:48:34.593Z,7.7
2023-01-13T05:50:38.414Z,7.7
2023-01-13T05:52:42.241Z,7.7
2023-01-13T05:54:46.075Z,7.6
2023-01-13T05:56:49.911Z,7.7
2023-01-13T05:58:56.510Z,7.8
2023-01-13T06:01:00.412Z,7.7
2023-01-13T06:03:04.207Z,7.8
2023-01-13T06:05:08.029Z,7.8
2023-01-13T06:07:11.828Z,7.9
2023-01-13T06:09:15.674Z,7.8
2023-01-13T06:11:19.471Z,7.9
2023-01-13T06:13:26.148Z,7.9
2023-01-13T06:15:29.978Z,7.9
2023-01-13T06:17:33.798Z,7.8
2023-01-13T06:19:37.621Z,7.7
2023-01-13T06:21:41.441Z,7.8
2023-01-13T06:23:45.281Z,7.8
2023-01-13T06:25:49.100Z,7.8
2023-01-13T06:27:55.716Z,7.8
2023-01-13T06:29:59.624Z,7.7
2023-01-13T06:33:06.721Z,7.7
2023-01-13T06:35:10.534Z,7.7
2023-01-13T06:37:14.377Z,7.7
2023-01-13T06:39:18.168Z,7.8
2023-01-13T06:41:24.822Z,7.9
2023-01-13T06:43:28.637Z,7.9
2023-01-13T06:45:32.456Z,7.9
2023-01-13T06:47:36.301Z,7.9
2023-01-13T06:49:40.118Z,7.9
2023-01-13T06:51:43.946Z,7.9
2023-01-13T06:53:47.784Z,7.9
2023-01-13T06:55:54.425Z,7.9
2023-01-13T06:57:58.230Z,7.9
2023-01-13T07:02:06.031Z,7.9
2023-01-13T07:04:09.768Z,7.9
2023-01-13T07:08:17.431Z,8
2023-01-13T07:10:24.073Z,8
2023-01-13T07:16:35.730Z,8
2023-01-13T07:18:39.439Z,8
2023-01-13T07:20:43.263Z,8.1
2023-01-13T07:22:47.116Z,8.1
2023-01-13T07:24:55.264Z,8
2023-01-13T07:29:02.929Z,8.1
2023-01-13T07:30:06.253Z,8.1
2023-01-13T07:32:10.146Z,8.1
2023-01-13T07:34:13.984Z,8
2023-01-13T07:36:17.807Z,8
2023-01-13T07:38:24.457Z,8
2023-01-13T07:40:28.381Z,8
2023-01-13T07:44:36.007Z,8.1
2023-01-13T07:46:39.857Z,8.1
2023-01-13T07:48:43.675Z,8.1
2023-01-13T07:50:47.549Z,8.1
2023-01-13T07:52:54.222Z,8.1
2023-01-13T07:54:58.040Z,8.1
2023-01-13T07:57:01.876Z,8.1
2023-01-13T07:59:05.721Z,8.1
2023-01-13T08:01:09.755Z,8.1
2023-01-13T08:03:13.411Z,8.1
2023-01-13T08:05:17.284Z,8.1
2023-01-13T08:07:23.915Z,8.1
2023-01-13T08:09:27.743Z,8.1
2023-01-13T08:13:35.466Z,8
2023-01-13T08:19:46.963Z,8
2023-01-13T08:21:53.636Z,7.8
2023-01-13T08:23:57.480Z,7.8
2023-01-13T08:26:01.312Z,7.9
2023-01-13T08:28:30.920Z,8
2023-01-13T08:30:34.817Z,8
2023-01-13T08:32:38.610Z,8.1
2023-01-13T08:34:45.259Z,8.3
2023-01-13T08:36:49.102Z,8.3
2023-01-13T08:38:52.941Z,8.3
2023-01-13T08:40:56.801Z,8.3
2023-01-13T08:43:00.661Z,8.2
2023-01-13T08:45:04.456Z,8.1
2023-01-13T08:47:08.294Z,8.1
2023-01-13T08:49:14.954Z,8.2
2023-01-13T08:51:18.804Z,8.2
2023-01-13T08:53:22.639Z,8.3
2023-01-13T08:55:26.476Z,8.3
2023-01-13T08:57:30.396Z,8.3
2023-01-13T08:59:34.181Z,8.3
2023-01-13T09:01:38.067Z,8.4
2023-01-13T09:03:44.658Z,8.2
2023-01-13T09:05:48.506Z,8.3
2023-01-13T09:07:52.373Z,8
2023-01-13T09:09:56.222Z,7.9
2023-01-13T09:12:00.047Z,7.7
2023-01-13T09:14:03.881Z,7.7
2023-01-13T09:16:07.751Z,7.5
2023-01-13T09:18:14.384Z,7.4
2023-01-13T09:20:18.254Z,7.3
2023-01-13T09:23:25.380Z,7.1
2023-01-13T09:25:29.241Z,7.1
2023-01-13T09:27:33.080Z,7.1
2023-01-13T09:31:44.359Z,7
2023-01-13T09:33:47.373Z,7
2023-01-13T09:35:51.218Z,7
2023-01-13T09:37:55.073Z,7
2023-01-13T09:39:58.917Z,7
2023-01-13T09:42:02.700Z,7
2023-01-13T09:44:06.550Z,7
2023-01-13T09:46:13.241Z,7
2023-01-13T09:48:17.054Z,7
2023-01-13T09:50:21.057Z,7.1
2023-01-13T09:52:26.939Z,7.2
2023-01-13T09:54:28.504Z,7.2
2023-01-13T09:56:32.318Z,7.3
2023-01-13T09:58:36.162Z,7.1
2023-01-13T10:00:42.781Z,7
2023-01-13T10:02:46.593Z,7
2023-01-13T10:04:50.476Z,7
2023-01-13T10:06:54.274Z,7.1
2023-01-13T10:08:58.105Z,7.1
2023-01-13T10:11:01.893Z,7.2
2023-01-13T10:13:05.757Z,7.1
2023-01-13T10:15:12.377Z,7.2
2023-01-13T10:20:23.341Z,7.1
2023-01-13T10:22:27.159Z,7.1
2023-01-13T10:24:30.994Z,7.2
2023-01-13T10:26:34.832Z,7.3
2023-01-13T10:28:41.464Z,7.2
2023-01-13T10:30:45.287Z,7.3
2023-01-13T10:32:49.123Z,7.2
2023-01-13T10:34:52.974Z,7.3
2023-01-13T10:36:56.806Z,7.3
2023-01-13T10:39:00.615Z,7.2
2023-01-13T10:43:11.051Z,7
2023-01-13T10:45:14.891Z,7
2023-01-13T10:47:18.765Z,6.8
2023-01-13T10:49:22.544Z,6.8
2023-01-13T10:51:26.388Z,6.8
2023-01-13T10:53:30.231Z,6.8
2023-01-13T11:01:48.406Z,6.9
2023-01-13T11:03:52.138Z,7
2023-01-13T11:07:59.760Z,7.2
2023-01-13T11:12:10.213Z,7.3
2023-01-13T11:16:17.917Z,7.3
2023-01-13T11:17:21.154Z,7.2
2023-01-13T11:19:25.000Z,7.2
2023-01-13T11:21:28.828Z,7.2
2023-01-13T11:23:32.650Z,7.2
2023-01-13T11:25:39.273Z,7.2
2023-01-13T11:27:43.103Z,7.2
2023-01-13T11:29:46.939Z,7.3
2023-01-13T11:31:50.754Z,7.3
2023-01-13T11:33:54.556Z,7.4
2023-01-13T11:35:58.431Z,7.4
2023-01-13T11:38:02.264Z,7.4
2023-01-13T11:40:08.876Z,7.5
2023-01-13T11:42:12.693Z,7.5
2023-01-13T11:44:16.571Z,7.4
2023-01-13T11:46:20.450Z,7.5
2023-01-13T11:48:24.182Z,7.5
2023-01-13T11:50:28.022Z,7.6
2023-01-13T11:52:31.856Z,7.6
2023-01-13T11:54:38.526Z,7.7
2023-01-13T11:56:42.341Z,7.7
2023-01-13T11:58:51.083Z,7.7
2023-01-13T12:00:49.989Z,7.7
2023-01-13T12:02:53.973Z,7.8
2023-01-13T12:04:57.662Z,7.8
2023-01-13T12:07:01.491Z,7.9
2023-01-13T12:13:15.835Z,8.2
2023-01-13T12:15:45.411Z,8.3
2023-01-13T12:17:49.271Z,8.3
2023-01-13T12:19:53.126Z,8.4
2023-01-13T12:24:03.598Z,8.4
2023-01-13T12:26:07.393Z,8.4
2023-01-13T12:28:11.243Z,8.4
2023-01-13T12:30:15.115Z,8.4
2023-01-13T12:32:18.948Z,8.4
2023-01-13T12:34:22.761Z,8.5
2023-01-13T12:36:29.408Z,8.5
2023-01-13T12:38:34.472Z,8.6
2023-01-13T12:40:37.009Z,8.6
2023-01-13T12:42:40.824Z,8.6
2023-01-13T12:44:44.724Z,8.6
2023-01-13T12:48:52.377Z,8.7
2023-01-13T12:50:59.017Z,8.8
2023-01-13T12:53:02.878Z,8.8
2023-01-13T12:55:06.707Z,8.7
2023-01-13T12:57:10.538Z,8.8
2023-01-13T13:01:18.271Z,8.9
2023-01-13T13:05:28.752Z,8.9
2023-01-13T13:07:32.574Z,8.9
2023-01-13T13:09:36.434Z,8.9
2023-01-13T13:10:39.754Z,8.9
2023-01-13T13:18:59.425Z,9
2023-01-13T13:21:04.732Z,9
2023-01-13T13:23:07.120Z,9
2023-01-13T13:25:10.993Z,9.1
2023-01-13T13:31:22.516Z,9.2
2023-01-13T13:35:33.058Z,9.2
2023-01-13T13:37:36.898Z,9.2
2023-01-13T13:41:44.609Z,9.2
2023-01-13T13:43:48.475Z,9.3
2023-01-13T13:45:52.429Z,9.3
2023-01-13T13:47:59.000Z,9.3
2023-01-13T13:50:02.880Z,9.3
2023-01-13T13:52:06.787Z,9.3
2023-01-13T13:54:10.590Z,9.3
2023-01-13T13:56:14.441Z,9.4
2023-01-13T13:58:18.286Z,9.4
2023-01-13T14:00:22.173Z,9.4
2023-01-13T14:02:28.876Z,9.4
2023-01-13T14:04:32.846Z,9.5
2023-01-13T14:06:36.560Z,9.5
2023-01-13T14:09:43.733Z,9.4
2023-01-13T14:15:58.192Z,9.5
2023-01-13T14:18:01.993Z,9.4
2023-01-13T14:20:05.859Z,9.5
2023-01-13T14:22:09.719Z,9.4
2023-01-13T14:24:13.575Z,9.4
2023-01-13T14:26:17.461Z,9.4
2023-01-13T14:28:21.312Z,9.4
2023-01-13T14:30:28.018Z,9.4
2023-01-13T14:36:39.576Z,9.3
2023-01-13T14:38:43.430Z,9.3
2023-01-13T14:40:47.336Z,9.3
2023-01-13T14:42:51.190Z,9.3
2023-01-13T14:44:57.862Z,9.4
2023-01-13T14:47:01.729Z,9.3
2023-01-13T14:49:05.597Z,9.3
2023-01-13T14:51:09.504Z,9.3
2023-01-13T14:53:13.313Z,9.3
2023-01-13T14:55:17.171Z,9.3
2023-01-13T14:57:21.028Z,9.2
2023-01-13T14:59:27.723Z,9.2
2023-01-13T15:01:31.758Z,9.3
2023-01-13T15:03:42.394Z,9.2
2023-01-13T15:04:38.811Z,9.3
2023-01-13T15:06:42.649Z,9.2
2023-01-13T15:08:46.538Z,9.2
2023-01-13T15:10:50.373Z,9.2
2023-01-13T15:12:57.060Z,9.2
2023-01-13T15:15:00.934Z,9.2
2023-01-13T15:17:04.813Z,9.2
2023-01-13T15:19:08.678Z,9.1
2023-01-13T15:21:12.526Z,9.1
2023-01-13T15:23:16.422Z,9
2023-01-13T15:25:20.302Z,9
2023-01-13T15:27:26.934Z,8.9
2023-01-13T15:29:30.825Z,8.9
2023-01-13T15:31:34.768Z,8.8
2023-01-13T15:33:38.553Z,8.8
2023-01-13T15:35:42.409Z,8.8
2023-01-13T15:37:46.260Z,8.8
2023-01-13T15:39:50.139Z,8.8
2023-01-13T15:41:56.834Z,8.8
2023-01-13T15:44:00.665Z,8.8
2023-01-13T15:46:04.551Z,8.9
2023-01-13T15:48:08.405Z,8.9
2023-01-13T15:56:26.667Z,8.9
2023-01-13T16:00:34.359Z,9
2023-01-13T16:03:03.963Z,9
2023-01-13T16:05:07.822Z,8.9
2023-01-13T16:17:33.823Z,8.9
2023-01-13T16:19:37.676Z,8.9
2023-01-13T16:21:41.561Z,8.8
2023-01-13T16:23:48.230Z,8.8
2023-01-13T16:25:52.179Z,8.9
2023-01-13T16:27:55.967Z,8.8
2023-01-13T16:29:59.807Z,8.8
2023-01-13T16:32:03.698Z,8.9
2023-01-13T16:34:07.559Z,8.8
2023-01-13T16:36:12.414Z,8.8
2023-01-13T16:40:21.968Z,8.8
2023-01-13T16:42:25.860Z,8.8
2023-01-13T16:46:33.576Z,8.7
2023-01-13T16:48:37.456Z,8.7
2023-01-13T16:50:41.305Z,8.7
2023-01-13T16:52:48.002Z,8.7
2023-01-13T16:54:51.874Z,8.7
2023-01-13T16:56:55.733Z,8.6
2023-01-13T16:57:59.049Z,8.7
2023-01-13T17:00:02.936Z,8.6
2023-01-13T17:02:06.818Z,8.7
2023-01-13T17:04:10.665Z,8.7
2023-01-13T17:06:17.348Z,8.7
2023-01-13T17:08:21.220Z,8.7
2023-01-13T17:10:25.058Z,8.6
2023-01-13T17:12:28.905Z,8.6
2023-01-13T17:14:32.787Z,8.5
2023-01-13T17:16:36.710Z,8.5
2023-01-13T17:18:40.503Z,8.6
2023-01-13T17:20:47.150Z,8.5
2023-01-13T17:22:58.036Z,8.5
2023-01-13T17:24:54.891Z,8.5
2023-01-13T17:26:58.728Z,8.5
2023-01-13T17:29:02.547Z,8.4
2023-01-13T17:31:06.421Z,8.4
2023-01-13T17:33:10.291Z,8.4
2023-01-13T17:35:16.955Z,8.2
2023-01-13T17:39:24.695Z,8.1
2023-01-13T17:41:28.527Z,8.1
2023-01-13T17:45:36.228Z,7.9
2023-01-13T17:49:46.717Z,7.7
2023-01-13T17:53:54.467Z,7.7
2023-01-13T17:54:57.740Z,7.7
2023-01-13T17:59:05.415Z,7.6
2023-01-13T18:01:09.439Z,7.7
2023-01-13T18:03:15.919Z,7.6
2023-01-13T18:05:19.743Z,7.6
2023-01-13T18:09:27.428Z,7.7
2023-01-13T18:11:31.271Z,7.6
2023-01-13T18:13:35.104Z,7.6
2023-01-13T18:15:38.899Z,7.6
2023-01-13T18:17:47.232Z,7.6
2023-01-13T18:19:49.436Z,7.6
2023-01-13T18:21:53.236Z,7.6
2023-01-13T18:23:57.082Z,7.6
2023-01-13T18:26:00.929Z,7.6
2023-01-13T18:28:04.723Z,7.6
2023-01-13T18:30:08.560Z,7.6
2023-01-13T18:32:15.205Z,7.7
2023-01-13T18:34:19.050Z,7.7
2023-01-13T18:36:22.898Z,7.7
2023-01-13T18:38:26.728Z,7.7
2023-01-13T18:40:30.569Z,7.6
2023-01-13T18:42:34.394Z,7.5
2023-01-13T18:44:38.248Z,7.5
2023-01-13T18:46:45.698Z,7.5
2023-01-13T18:48:49.532Z,7.4
2023-01-13T18:50:53.359Z,7.4
2023-01-13T18:56:04.318Z,7.4
2023-01-13T18:58:08.170Z,7.3
2023-01-13T19:06:26.282Z,7.3
2023-01-13T19:08:30.109Z,7.3
2023-01-13T19:10:33.947Z,7.3
2023-01-13T19:12:37.849Z,7.3
2023-01-13T19:14:44.497Z,7.1
2023-01-13T19:16:49.799Z,7.1
2023-01-13T19:18:53.628Z,7.1
2023-01-13T19:20:57.426Z,7.1
2023-01-13T19:25:05.072Z,7.1
2023-01-13T19:27:08.885Z,7
2023-01-13T19:29:15.532Z,7.1
2023-01-13T19:31:19.392Z,7.1
2023-01-13T19:33:23.167Z,7
2023-01-13T19:35:27.003Z,7.1
2023-01-13T19:37:30.840Z,7.1
2023-01-13T19:39:34.638Z,7
2023-01-13T19:41:38.446Z,7
2023-01-13T19:43:45.097Z,7
2023-01-13T19:45:48.906Z,7
2023-01-13T19:47:52.736Z,7
2023-01-13T19:50:22.340Z,7
2023-01-13T19:52:26.154Z,7
2023-01-13T19:54:29.980Z,7
2023-01-13T19:56:36.597Z,7.1
2023-01-13T19:58:40.434Z,7.1
2023-01-13T20:00:44.251Z,7.1
2023-01-13T20:02:48.138Z,7.1
2023-01-13T20:04:51.883Z,7.1
2023-01-13T20:06:55.677Z,7.2
2023-01-13T20:08:59.519Z,7.2
2023-01-13T20:11:06.105Z,7.2
2023-01-13T20:13:09.916Z,7.3
2023-01-13T20:15:13.733Z,7.3
2023-01-13T20:17:17.588Z,7.2
2023-01-13T20:19:21.369Z,7.2
2023-01-13T20:21:25.166Z,7.1
2023-01-13T20:23:28.995Z,7.2
2023-01-13T20:25:35.697Z,7.2
2023-01-13T20:27:39.446Z,7.2
2023-01-13T20:29:43.312Z,7.3
2023-01-13T20:31:47.123Z,7.4
2023-01-13T20:33:50.896Z,7.4
2023-01-13T20:35:54.710Z,7.5
2023-01-13T20:47:19.927Z,7.4
2023-01-13T20:53:34.184Z,7.4
2023-01-13T21:03:53.302Z,7.4
2023-01-13T21:08:03.725Z,7.3
2023-01-13T21:12:11.351Z,7.3
2023-01-13T21:16:19.026Z,7.3
2023-01-13T21:22:33.268Z,7.2
2023-01-13T21:24:37.086Z,7.3
2023-01-13T21:26:40.887Z,7.3
2023-01-13T21:28:44.732Z,7.3
2023-01-13T21:30:48.542Z,7.2
2023-01-13T21:32:52.366Z,7.3
2023-01-13T21:34:56.163Z,7.3
2023-01-13T21:37:02.801Z,7.3
2023-01-13T21:39:06.628Z,7.3
2023-01-13T21:41:10.403Z,7.3
2023-01-13T21:46:21.386Z,7.2
2023-01-13T21:48:25.200Z,7.2
2023-01-13T21:50:31.832Z,7.4
2023-01-13T21:52:35.656Z,7.4
2023-01-13T21:54:39.473Z,7.4
2023-01-13T21:56:43.273Z,7.3
2023-01-13T21:58:47.115Z,7.3
2023-01-13T22:00:50.960Z,7.3
2023-01-13T22:02:54.808Z,7.3
2023-01-13T22:05:01.406Z,7.2
2023-01-13T22:09:09.019Z,7.2
2023-01-13T22:19:30.902Z,7.2
2023-01-13T22:29:50.048Z,7.3
2023-01-13T22:34:00.484Z,7.5
2023-01-13T22:36:04.280Z,7.5
2023-01-13T22:39:11.400Z,7.5
2023-01-13T22:41:15.248Z,7.5
2023-01-13T22:45:22.863Z,7.6
2023-01-13T22:47:29.530Z,7.6
2023-01-13T22:49:33.291Z,7.5
2023-01-13T22:51:37.112Z,7.5
2023-01-13T22:53:40.943Z,7.5
2023-01-13T22:57:48.669Z,7.6
2023-01-13T22:59:52.392Z,7.6
2023-01-13T23:04:02.967Z,7.5
2023-01-13T23:06:06.691Z,7.5
2023-01-13T23:08:10.500Z,7.5
2023-01-13T23:10:14.323Z,7.5
2023-01-13T23:12:18.137Z,7.5
2023-01-13T23:14:21.949Z,7.5
2023-01-13T23:16:28.680Z,7.5
2023-01-13T23:18:32.381Z,7.5
2023-01-13T23:22:40.026Z,7.4
2023-01-13T23:26:47.668Z,7.5
2023-01-13T23:33:01.968Z,7.3
2023-01-13T23:35:05.794Z,7.3
2023-01-13T23:43:49.760Z,7.2
2023-01-13T23:47:57.319Z,7.2
2023-01-13T23:50:01.138Z,7.2
2023-01-13T23:52:04.958Z,7.2
2023-01-13T23:54:08.813Z,7.2
2023-01-13T23:56:12.627Z,7.2
2023-01-13T23:58:19.235Z,7.2
